Time;durP1;ratioP1;P1;durP2;ratioP2;P2;SDS_P1;SDS_P2;PMS_P1;PMS_P2;Temp;Humidity;BMP_temperature;BMP_pressure;BME280_temperature;BME280_humidity;BME280_pressure;Samples;Min_cycle;Max_cycle;Signal;HPM_P1;HPM_P2
2022/08/21 05:01:42;;;;;;;5.43;3.15;;;14.40;99.90;;;;;;5914927;23;20023;31
2022/08/21 05:04:11;;;;;;;6.07;2.72;;;14.50;99.90;;;;;;4868947;29;20279;-73
2022/08/21 05:07:05;;;;;;;6.03;2.72;;;14.60;99.90;;;;;;4886553;29;20037;-72
2022/08/21 05:09:49;;;;;;;6.38;2.80;;;14.70;99.90;;;;;;4870514;29;20184;-72
2022/08/21 05:12:14;;;;;;;6.10;2.95;;;14.70;99.90;;;;;;4886906;29;20040;-73
2022/08/21 05:14:43;;;;;;;5.20;2.78;;;14.80;99.90;;;;;;4887294;29;20281;-73
2022/08/21 05:17:18;;;;;;;;;;;14.90;99.90;;;;;;4887739;29;20037;-73
2022/08/21 05:19:47;;;;;;;6.05;2.75;;;15.00;99.90;;;;;;4887437;29;19979;-73
2022/08/21 05:22:24;;;;;;;4.90;2.63;;;15.00;99.90;;;;;;4870953;29;20342;-73
2022/08/21 05:24:56;;;;;;;7.60;2.97;;;15.10;99.90;;;;;;4887288;29;20045;-73
2022/08/21 05:27:56;;;;;;;5.40;2.60;;;15.20;99.90;;;;;;4877556;29;20260;-73
2022/08/21 05:30:28;;;;;;;7.65;2.55;;;15.30;99.90;;;;;;4891138;29;20025;-73
2022/08/21 05:33:01;;;;;;;4.05;2.58;;;15.40;99.90;;;;;;4891242;29;20096;-73
2022/08/21 05:35:34;;;;;;;3.85;2.30;;;15.40;99.90;;;;;;4890945;29;20220;-75
2022/08/21 05:38:08;;;;;;;4.97;2.55;;;15.50;99.90;;;;;;4891167;29;20247;-73
2022/08/21 05:40:37;;;;;;;3.65;2.20;;;15.50;99.90;;;;;;4890946;29;20029;-73
2022/08/21 05:43:07;;;;;;;4.10;2.60;;;15.60;99.90;;;;;;4889025;29;20108;-73
2022/08/21 05:45:39;;;;;;;5.53;2.92;;;15.70;99.90;;;;;;4871833;29;20037;-73
2022/08/21 05:48:13;;;;;;;5.18;2.40;;;15.80;99.90;;;;;;4871903;29;20089;-73
2022/08/21 05:50:52;;;;;;;4.60;2.10;;;16.00;99.90;;;;;;4871784;29;20121;-73
2022/08/21 05:53:20;;;;;;;5.65;2.72;;;16.00;99.90;;;;;;4872459;29;20053;-73
2022/08/21 05:55:46;;;;;;;;;;;16.20;99.90;;;;;;4879655;29;20040;-73
2022/08/21 05:58:19;;;;;;;5.22;2.65;;;16.30;99.90;;;;;;4890649;29;19922;-73
2022/08/21 06:00:58;;;;;;;4.05;2.25;;;16.40;99.90;;;;;;4890266;29;20323;-73
2022/08/21 06:03:28;;;;;;;3.75;2.42;;;16.50;99.90;;;;;;4872865;29;20355;-73
2022/08/21 06:05:57;;;;;;;4.50;2.17;;;16.60;99.90;;;;;;4872170;29;20033;-73
2022/08/21 06:08:24;;;;;;;6.30;2.75;;;16.70;99.90;;;;;;4871896;29;20159;-74
2022/08/21 06:10:57;;;;;;;3.47;2.30;;;16.80;99.90;;;;;;4870261;29;20545;-73
2022/08/21 06:13:26;;;;;;;3.72;1.90;;;16.80;99.90;;;;;;4855105;29;20152;-73
2022/08/21 06:16:18;;;;;;;5.90;2.70;;;16.90;99.90;;;;;;4870502;29;20104;-73
2022/08/21 06:18:45;;;;;;;4.47;2.30;;;17.00;99.90;;;;;;4870260;29;20089;-73
2022/08/21 06:21:23;;;;;;;7.75;2.85;;;17.00;99.90;;;;;;4872012;29;20053;-73
2022/08/21 06:24:00;;;;;;;6.22;2.67;;;17.00;99.90;;;;;;4869639;29;20033;-73
2022/08/21 06:26:44;;;;;;;5.15;2.28;;;17.10;99.90;;;;;;4869936;29;20045;-73
2022/08/21 06:29:16;;;;;;;5.53;2.30;;;17.30;99.90;;;;;;4871371;29;20037;-73
2022/08/21 06:31:51;;;;;;;5.30;2.55;;;17.40;99.90;;;;;;4856590;29;20339;-74
2022/08/21 06:34:17;;;;;;;4.85;2.30;;;17.60;99.90;;;;;;4869784;29;20064;-74
2022/08/21 06:36:45;;;;;;;5.18;2.45;;;17.70;99.90;;;;;;4867864;29;20084;-73
2022/08/21 06:39:14;;;;;;;6.60;2.25;;;17.80;99.90;;;;;;4869411;29;20030;-74
2022/08/21 06:41:39;;;;;;;;;;;17.80;99.90;;;;;;4871779;29;20034;-73
2022/08/21 06:44:28;;;;;;;;;;;;;;;;;;;;;
2022/08/21 06:47:19;;;;;;;6.00;2.53;;;18.10;99.90;;;;;;4871305;29;20045;-73
2022/08/21 06:49:44;;;;;;;4.95;1.83;;;18.20;99.90;;;;;;4854607;29;20030;-73
2022/08/21 06:52:15;;;;;;;5.50;2.80;;;18.40;99.90;;;;;;4854714;29;20050;-73
2022/08/21 06:54:44;;;;;;;4.50;2.50;;;18.30;99.90;;;;;;4869087;29;20045;-73
2022/08/21 06:57:13;;;;;;;4.65;2.47;;;18.40;99.90;;;;;;4871040;29;20053;-73
2022/08/21 06:59:38;;;;;;;6.18;2.83;;;18.50;99.90;;;;;;4854221;29;20109;-73
2022/08/21 07:02:19;;;;;;;5.63;2.70;;;18.70;99.90;;;;;;4849027;29;20065;-74
2022/08/21 07:04:53;;;;;;;6.47;2.50;;;18.70;99.90;;;;;;4851100;29;20375;-74
2022/08/21 07:07:25;;;;;;;4.95;2.30;;;18.90;99.90;;;;;;4850951;29;20030;-74
2022/08/21 07:09:56;;;;;;;6.10;2.70;;;19.00;99.90;;;;;;4852660;29;20029;-72
2022/08/21 07:12:43;;;;;;;4.10;2.30;;;19.20;99.90;;;;;;4867145;29;20101;-74
2022/08/21 07:15:09;;;;;;;16.60;3.42;;;19.40;99.90;;;;;;4851008;29;20109;-74
2022/08/21 07:17:38;;;;;;;7.55;2.22;;;19.50;99.30;;;;;;4866452;29;20029;-74
2022/08/21 07:20:11;;;;;;;7.10;2.40;;;19.60;98.30;;;;;;4850680;29;20134;-73
2022/08/21 07:22:44;;;;;;;5.28;2.20;;;19.70;98.00;;;;;;4851673;29;20105;-74
2022/08/21 07:25:10;;;;;;;5.10;2.50;;;19.90;97.20;;;;;;4851746;29;20104;-74
2022/08/21 07:27:45;;;;;;;4.75;2.30;;;20.00;96.60;;;;;;4851621;29;20034;-74
2022/08/21 07:30:11;;;;;;;7.47;2.40;;;20.10;95.70;;;;;;4852053;29;20083;-72
2022/08/21 07:32:37;;;;;;;6.05;2.92;;;20.30;94.80;;;;;;4851476;29;20282;-74
2022/08/21 07:35:03;;;;;;;7.53;2.88;;;20.40;93.50;;;;;;4851539;29;20042;-73
2022/08/21 07:37:29;;;;;;;5.93;2.17;;;20.50;93.20;;;;;;4846641;29;20041;-73
2022/08/21 07:39:58;;;;;;;6.13;2.67;;;20.60;92.70;;;;;;4850156;29;20070;-74
2022/08/21 07:42:24;;;;;;;3.80;2.13;;;20.70;92.00;;;;;;4851445;29;20038;-75
2022/08/21 07:44:49;;;;;;;7.15;2.35;;;20.80;91.20;;;;;;4850982;29;20366;-73
2022/08/21 07:47:15;;;;;;;7.15;2.40;;;20.60;90.70;;;;;;4851720;29;20030;-73
2022/08/21 07:49:43;;;;;;;4.22;2.58;;;20.70;90.60;;;;;;4850535;29;20113;-73
2022/08/21 07:52:12;;;;;;;5.63;2.28;;;20.80;91.10;;;;;;4852125;29;20264;-73
2022/08/21 07:54:40;;;;;;;4.65;2.00;;;21.00;90.70;;;;;;4851063;29;20034;-73
2022/08/21 07:57:06;;;;;;;6.05;2.83;;;21.10;90.60;;;;;;4851809;29;20026;-72
2022/08/21 07:59:32;;;;;;;4.90;2.08;;;21.30;90.10;;;;;;4851504;29;20038;-72
2022/08/21 08:01:58;;;;;;;5.40;2.25;;;21.30;89.00;;;;;;4853841;29;20061;-73
2022/08/21 08:04:27;;;;;;;6.20;2.60;;;21.50;88.60;;;;;;4866157;29;20042;-72
2022/08/21 08:06:52;;;;;;;6.45;2.28;;;21.60;88.60;;;;;;4861049;29;20033;-73
2022/08/21 08:09:20;;;;;;;4.15;2.20;;;21.70;87.40;;;;;;4869453;29;20029;-77
2022/08/21 08:12:01;;;;;;;5.43;2.15;;;21.70;86.20;;;;;;4851933;29;20290;-77
2022/08/21 08:14:27;;;;;;;6.35;2.33;;;21.90;86.60;;;;;;4866114;29;20060;-70
2022/08/21 08:16:52;;;;;;;5.15;2.38;;;22.00;86.10;;;;;;4867349;29;20041;-71
2022/08/21 08:19:18;;;;;;;5.90;2.42;;;22.10;85.40;;;;;;4869278;29;20021;-70
2022/08/21 08:21:44;;;;;;;6.63;2.85;;;22.00;84.40;;;;;;4868319;29;20053;-71
2022/08/21 08:24:09;;;;;;;4.22;1.98;;;22.00;84.30;;;;;;4869455;29;20033;-71
2022/08/21 08:26:35;;;;;;;6.05;2.15;;;22.10;83.60;;;;;;4869299;29;20044;-72
2022/08/21 08:29:01;;;;;;;7.82;3.00;;;22.20;83.50;;;;;;4869342;29;20037;-71
2022/08/21 08:31:27;;;;;;;7.25;2.47;;;22.30;82.90;;;;;;4870011;29;20263;-71
2022/08/21 08:33:53;;;;;;;3.97;2.55;;;22.40;82.40;;;;;;4868920;29;20090;-72
2022/08/21 08:36:21;;;;;;;6.78;2.47;;;22.50;82.70;;;;;;4869693;29;20290;-72
2022/08/21 08:38:47;;;;;;;;;;;22.50;82.20;;;;;;4851068;29;20029;-70
2022/08/21 08:41:22;;;;;;;6.65;2.50;;;22.60;81.70;;;;;;4851366;29;19904;-70
2022/08/21 08:44:03;;;;;;;7.43;2.60;;;22.70;81.50;;;;;;4859025;29;20036;-71
2022/08/21 08:46:38;;;;;;;5.78;2.45;;;22.80;81.40;;;;;;4867332;29;20065;-69
2022/08/21 08:49:13;;;;;;;6.47;2.20;;;22.80;81.00;;;;;;4869224;29;20074;-70
2022/08/21 08:52:07;;;;;;;7.03;2.65;;;23.00;80.60;;;;;;4869262;29;20037;-70
2022/08/21 08:55:02;;;;;;;7.28;2.53;;;23.00;79.70;;;;;;4869409;29;20045;-70
2022/08/21 08:57:27;;;;;;;6.20;2.08;;;23.10;80.20;;;;;;4867662;29;20041;-70
2022/08/21 09:00:00;;;;;;;6.32;2.67;;;23.20;79.20;;;;;;4869069;29;20223;-69
2022/08/21 09:02:27;;;;;;;4.70;2.22;;;23.40;77.50;;;;;;4872239;29;20056;-69
2022/08/21 09:04:54;;;;;;;4.15;2.55;;;23.40;75.80;;;;;;4872460;29;20331;-69
2022/08/21 09:07:46;;;;;;;7.63;2.50;;;23.30;75.70;;;;;;4872614;29;20025;-69
2022/08/21 09:10:30;;;;;;;5.10;2.08;;;23.40;76.60;;;;;;4873156;29;20048;-68
2022/08/21 09:13:45;;;;;;;4.20;2.47;;;23.60;75.10;;;;;;4872483;29;20304;-68
2022/08/21 09:16:36;;;;;;;8.13;2.60;;;23.80;74.60;;;;;;4816233;29;20144;-73
2022/08/21 09:19:21;;;;;;;6.70;2.60;;;23.90;73.70;;;;;;4797574;30;20042;-71
2022/08/21 09:22:12;;;;;;;6.45;2.50;;;24.10;73.00;;;;;;4845242;29;20049;-70
2022/08/21 09:24:50;;;;;;;8.65;3.55;;;24.10;71.80;;;;;;4860172;29;20085;-71
2022/08/21 09:27:18;;;;;;;3.63;2.22;;;24.10;70.40;;;;;;4872397;29;20049;-71
2022/08/21 09:29:48;;;;;;;6.57;2.70;;;24.30;70.70;;;;;;4872298;29;20208;-70
2022/08/21 09:32:34;;;;;;;8.45;2.60;;;24.30;71.90;;;;;;4872590;29;20037;-71
2022/08/21 09:35:11;;;;;;;9.23;3.65;;;24.40;70.30;;;;;;4872178;29;20053;-71
2022/08/21 09:37:54;;;;;;;4.93;2.53;;;24.40;71.70;;;;;;4872312;29;20042;-70
2022/08/21 09:40:20;;;;;;;5.15;2.58;;;24.50;71.00;;;;;;4872304;29;20068;-70
2022/08/21 09:42:59;;;;;;;9.68;2.85;;;24.50;70.70;;;;;;4872198;29;20033;-72
2022/08/21 09:45:25;;;;;;;9.30;2.88;;;24.60;71.50;;;;;;4872370;29;20044;-73
2022/08/21 09:47:51;;;;;;;4.97;2.50;;;24.70;69.80;;;;;;4871875;29;20080;-73
2022/08/21 09:50:24;;;;;;;6.88;2.88;;;24.80;70.00;;;;;;4872152;29;20188;-71
2022/08/21 09:52:58;;;;;;;7.57;2.45;;;25.00;69.50;;;;;;4872055;29;20061;-72
2022/08/21 09:58:45;;;;;;;6.22;2.78;;;25.10;67.80;;;;;;4872491;29;20038;-73
2022/08/21 10:01:21;;;;;;;5.20;2.38;;;25.20;68.00;;;;;;4871607;29;20334;-72
2022/08/21 10:03:47;;;;;;;6.50;2.58;;;25.30;66.70;;;;;;4866857;29;20083;-72
2022/08/21 10:06:28;;;;;;;6.88;2.85;;;25.30;65.40;;;;;;4871311;29;20041;-72
2022/08/21 10:09:12;;;;;;;5.38;2.60;;;25.30;65.40;;;;;;4870968;29;20188;-72
2022/08/21 10:11:40;;;;;;;5.40;2.90;;;25.30;65.40;;;;;;4872205;29;20029;-72
2022/08/21 10:14:55;;;;;;;6.90;2.50;;;25.30;66.30;;;;;;4870546;29;20041;-71
2022/08/21 10:17:36;;;;;;;5.72;2.60;;;25.40;65.90;;;;;;4855035;29;20161;-72
2022/08/21 10:20:16;;;;;;;6.65;2.70;;;25.50;66.20;;;;;;4870364;29;20201;-72
2022/08/21 10:22:51;;;;;;;6.85;2.30;;;25.70;66.50;;;;;;4872019;29;20029;-71
2022/08/21 10:25:49;;;;;;;6.30;2.40;;;25.70;64.70;;;;;;4871585;29;20049;-72
2022/08/21 10:28:24;;;;;;;6.78;2.10;;;25.90;65.10;;;;;;4862545;29;20045;-71
2022/08/21 10:31:00;;;;;;;7.25;2.63;;;26.00;65.50;;;;;;4871477;29;20044;-72
2022/08/21 10:33:45;;;;;;;6.05;2.78;;;26.20;64.00;;;;;;4871794;29;20041;-72
2022/08/21 10:36:41;;;;;;;6.32;2.38;;;26.20;63.60;;;;;;4866320;29;20037;-71
2022/08/21 10:39:20;;;;;;;7.30;2.88;;;26.10;63.90;;;;;;4870553;29;20037;-71
2022/08/21 10:41:58;;;;;;;5.80;2.20;;;26.20;65.30;;;;;;4870888;29;20026;-72
2022/08/21 10:44:38;;;;;;;6.43;2.55;;;26.30;64.00;;;;;;4871368;29;20097;-71
2022/08/21 10:47:13;;;;;;;4.47;2.78;;;26.40;63.10;;;;;;4855627;29;20041;-72
2022/08/21 10:49:51;;;;;;;9.23;2.50;;;26.50;63.00;;;;;;4852616;29;20030;-72
2022/08/21 10:52:46;;;;;;;5.78;2.53;;;26.50;62.90;;;;;;4852814;29;20094;-72
2022/08/21 10:55:44;;;;;;;6.82;2.72;;;26.60;61.60;;;;;;4852654;29;20128;-73
2022/08/21 10:58:33;;;;;;;8.07;2.42;;;26.70;61.80;;;;;;4847932;29;20057;-72
2022/08/21 11:01:11;;;;;;;4.68;2.80;;;26.90;61.90;;;;;;4851853;29;20235;-71
2022/08/21 11:03:44;;;;;;;5.73;2.50;;;27.00;62.30;;;;;;4861627;29;20292;-72
2022/08/21 11:06:19;;;;;;;6.20;2.50;;;27.10;62.60;;;;;;4868964;29;20033;-72
2022/08/21 11:08:52;;;;;;;7.32;2.63;;;27.30;61.80;;;;;;4870772;29;20081;-72
2022/08/21 11:11:27;;;;;;;6.63;2.70;;;27.30;61.50;;;;;;4871070;29;20233;-72
2022/08/21 11:14:00;;;;;;;6.18;2.80;;;27.20;61.40;;;;;;4870301;29;20255;-71
2022/08/21 11:16:51;;;;;;;5.57;2.33;;;27.30;61.90;;;;;;4865669;29;20109;-73
2022/08/21 11:19:34;;;;;;;5.30;2.60;;;27.50;60.50;;;;;;4870747;29;20118;-73
2022/08/21 11:22:31;;;;;;;5.60;2.20;;;27.80;59.70;;;;;;4870462;29;20101;-72
2022/08/21 11:25:08;;;;;;;6.55;2.10;;;28.40;59.60;;;;;;4870285;29;20226;-72
2022/08/21 11:27:55;;;;;;;6.68;2.15;;;29.00;58.10;;;;;;4868869;29;20421;-72
2022/08/21 11:30:26;;;;;;;6.28;2.30;;;29.60;57.50;;;;;;4870818;29;20044;-72
2022/08/21 11:33:14;;;;;;;4.93;2.38;;;30.10;57.40;;;;;;4870163;29;20050;-71
2022/08/21 11:35:53;;;;;;;6.05;2.03;;;31.10;55.60;;;;;;4870863;29;20053;-72
2022/08/21 11:38:34;;;;;;;5.60;2.35;;;32.00;54.10;;;;;;4870346;29;20037;-72
2022/08/21 11:41:21;;;;;;;4.75;2.00;;;33.10;53.30;;;;;;4870131;29;20033;-72
2022/08/21 11:43:50;;;;;;;;;;;33.80;51.70;;;;;;4870892;29;20360;-71
2022/08/21 11:46:35;;;;;;;4.05;2.10;;;33.70;52.00;;;;;;4870397;29;20186;-73
2022/08/21 11:49:15;;;;;;;5.93;2.22;;;34.50;50.90;;;;;;4864900;29;20040;-72
2022/08/21 11:51:53;;;;;;;4.72;1.90;;;35.30;49.60;;;;;;4869957;29;20230;-73
2022/08/21 11:55:06;;;;;;;5.13;1.90;;;36.30;48.40;;;;;;4870211;29;20042;-71
2022/08/21 11:57:53;;;;;;;4.68;2.17;;;36.40;48.40;;;;;;4870534;29;20107;-71
2022/08/21 12:00:25;;;;;;;5.07;2.33;;;36.70;48.00;;;;;;4870459;29;20088;-71
2022/08/21 12:02:55;;;;;;;5.97;2.28;;;37.50;46.50;;;;;;4869273;29;20117;-72
2022/08/21 12:05:31;;;;;;;3.67;2.00;;;37.90;45.90;;;;;;4870450;29;20264;-72
2022/08/21 12:08:05;;;;;;;5.65;2.00;;;38.00;45.60;;;;;;4869457;29;20025;-72
2022/08/21 12:10:40;;;;;;;4.32;2.17;;;38.80;45.40;;;;;;4853408;29;20278;-73
2022/08/21 12:13:13;;;;;;;3.63;1.77;;;39.50;46.00;;;;;;4868417;29;20029;-74
2022/08/21 12:15:39;;;;;;;5.22;2.10;;;40.00;43.80;;;;;;4869873;29;20044;-72
2022/08/21 12:18:20;;;;;;;2.90;1.60;;;39.30;43.90;;;;;;4869568;29;20037;-72
2022/08/21 12:21:19;;;;;;;5.00;1.88;;;39.30;42.70;;;;;;4863839;29;20216;-70
2022/08/21 12:24:01;;;;;;;5.63;2.15;;;39.70;43.50;;;;;;4869690;29;20033;-71
2022/08/21 12:26:30;;;;;;;4.05;1.90;;;40.00;43.10;;;;;;4869685;29;20049;-72
2022/08/21 12:29:10;;;;;;;4.50;1.80;;;39.90;42.80;;;;;;4869148;29;20048;-72
2022/08/21 12:31:48;;;;;;;4.40;1.80;;;40.40;42.80;;;;;;4869556;29;20029;-72
2022/08/21 12:34:15;;;;;;;4.70;1.77;;;41.40;43.00;;;;;;4869155;29;20033;-72
2022/08/21 12:36:49;;;;;;;4.03;1.65;;;40.80;42.20;;;;;;4869292;29;20033;-72
2022/08/21 12:39:23;;;;;;;4.43;1.90;;;41.40;42.50;;;;;;4869864;29;20143;-72
2022/08/21 12:42:19;;;;;;;3.80;1.80;;;42.40;42.30;;;;;;4869415;29;20227;-72
2022/08/21 12:45:02;;;;;;;3.13;1.70;;;42.80;41.50;;;;;;4868445;29;20104;-72
2022/08/21 12:47:53;;;;;;;3.70;1.80;;;43.00;41.80;;;;;;4869310;29;20111;-72
2022/08/21 12:50:35;;;;;;;4.28;1.92;;;43.40;41.00;;;;;;4869429;29;20033;-71
2022/08/21 12:53:24;;;;;;;5.32;3.00;;;43.80;40.70;;;;;;4869311;29;20123;-72
2022/08/21 12:55:50;;;;;;;3.72;1.90;;;43.60;40.30;;;;;;4868332;29;20060;-71
2022/08/21 12:58:21;;;;;;;3.83;1.92;;;44.20;39.80;;;;;;4868857;29;20300;-72
2022/08/21 13:01:01;;;;;;;2.75;1.40;;;43.70;40.10;;;;;;4864284;29;20096;-72
2022/08/21 13:03:27;;;;;;;5.57;1.95;;;44.50;39.90;;;;;;4868785;29;20053;-71
2022/08/21 13:05:54;;;;;;;5.53;2.10;;;44.50;40.00;;;;;;4869190;29;20046;-72
2022/08/21 13:08:24;;;;;;;4.45;2.03;;;44.70;39.50;;;;;;4869180;29;20211;-71
2022/08/21 13:11:01;;;;;;;4.35;1.92;;;45.10;39.40;;;;;;4869472;29;20045;-71
2022/08/21 13:13:29;;;;;;;5.30;2.03;;;45.50;39.50;;;;;;4869357;29;20041;-71
2022/08/21 13:16:00;;;;;;;4.80;1.80;;;46.10;38.70;;;;;;4869390;29;20029;-72
2022/08/21 13:18:28;;;;;;;3.72;1.75;;;45.80;38.50;;;;;;4868819;29;20029;-71
2022/08/21 13:21:05;;;;;;;4.20;2.00;;;45.70;38.50;;;;;;4869329;29;20327;-71
2022/08/21 13:23:31;;;;;;;5.85;2.15;;;45.50;38.10;;;;;;4869227;29;20108;-71
2022/08/21 13:25:57;;;;;;;4.33;2.00;;;45.30;39.90;;;;;;4868645;29;20150;-71
2022/08/21 13:28:32;;;;;;;3.88;2.00;;;45.30;38.40;;;;;;4867376;29;20029;-71
2022/08/21 13:31:01;;;;;;;3.13;1.55;;;45.10;38.10;;;;;;4868792;29;20067;-71
2022/08/21 13:33:33;;;;;;;30.15;26.92;;;42.90;39.10;;;;;;4863687;29;20044;-71
2022/08/21 13:36:03;;;;;;;4.78;2.13;;;41.40;40.30;;;;;;4867963;29;20323;-71
2022/08/21 13:38:32;;;;;;;5.38;2.20;;;40.80;41.60;;;;;;4868923;29;20152;-71
2022/08/21 13:41:16;;;;;;;4.95;2.03;;;42.10;40.20;;;;;;4868487;29;20204;-71
2022/08/21 13:44:00;;;;;;;8.52;5.72;;;42.80;39.70;;;;;;4869078;29;20033;-71
2022/08/21 13:46:32;;;;;;;4.28;2.10;;;44.20;39.40;;;;;;4852171;29;20103;-71
2022/08/21 13:49:00;;;;;;;6.13;2.25;;;45.20;38.70;;;;;;4853240;29;20038;-72
2022/08/21 13:51:26;;;;;;;9.77;5.45;;;45.70;38.30;;;;;;4853760;29;20046;-71
2022/08/21 13:53:53;;;;;;;5.23;2.67;;;46.40;37.60;;;;;;4853834;29;20030;-71
2022/08/21 13:56:46;;;;;;;5.00;2.05;;;46.60;37.80;;;;;;4853522;29;20046;-72
2022/08/21 13:59:27;;;;;;;13.43;12.15;;;47.30;37.50;;;;;;4835334;29;20326;-73
2022/08/21 14:02:10;;;;;;;8.02;6.03;;;47.20;37.20;;;;;;4853752;29;20099;-72
2022/08/21 14:04:42;;;;;;;3.85;2.30;;;47.60;37.30;;;;;;4854104;29;20030;-73
2022/08/21 14:07:39;;;;;;;4.35;2.10;;;47.50;37.00;;;;;;4853124;29;20044;-72
2022/08/21 14:10:20;;;;;;;4.35;1.73;;;46.80;36.50;;;;;;4862858;29;20073;-72
2022/08/21 14:12:55;;;;;;;3.22;1.50;;;45.00;37.40;;;;;;4871544;29;20040;-72
2022/08/21 14:15:28;;;;;;;3.97;2.10;;;44.70;37.80;;;;;;4870974;29;20244;-71
2022/08/21 14:18:06;;;;;;;5.05;2.58;;;44.40;37.70;;;;;;4872057;29;20252;-72
2022/08/21 14:20:34;;;;;;;5.88;2.30;;;44.40;37.90;;;;;;4871709;29;20251;-72
2022/08/21 14:23:00;;;;;;;4.63;2.30;;;45.50;37.90;;;;;;4871665;29;20033;-71
2022/08/21 14:25:45;;;;;;;3.28;1.92;;;45.80;37.70;;;;;;4869979;29;20038;-71
2022/08/21 14:28:27;;;;;;;3.90;1.77;;;46.90;37.30;;;;;;4871331;29;20052;-72
2022/08/21 14:30:54;;;;;;;4.70;1.52;;;48.40;36.60;;;;;;4871648;29;20323;-73
2022/08/21 14:33:31;;;;;;;3.05;1.73;;;49.30;35.90;;;;;;4871425;29;20092;-72
2022/08/21 14:35:57;;;;;;;3.75;1.77;;;49.60;36.10;;;;;;4871518;29;20041;-72
2022/08/21 14:38:25;;;;;;;4.88;2.28;;;50.30;35.70;;;;;;4870426;29;20112;-72
2022/08/21 14:40:58;;;;;;;4.30;1.83;;;49.90;35.30;;;;;;4871537;29;20037;-72
2022/08/21 14:43:27;;;;;;;3.53;1.90;;;49.70;35.40;;;;;;4871336;29;20303;-73
2022/08/21 14:45:53;;;;;;;3.30;1.80;;;49.10;35.30;;;;;;4866044;29;20044;-73
2022/08/21 14:48:19;;;;;;;4.20;1.70;;;48.70;35.40;;;;;;4866702;29;20318;-72
2022/08/21 14:50:45;;;;;;;2.90;1.83;;;48.80;35.50;;;;;;4871638;29;20026;-71
2022/08/21 14:53:11;;;;;;;4.25;1.70;;;49.20;35.40;;;;;;4871188;29;20590;-71
2022/08/21 14:58:24;;;;;;;4.30;1.90;;;48.70;35.60;;;;;;4868952;29;20110;-71
2022/08/21 15:00:52;;;;;;;3.95;1.80;;;48.00;35.60;;;;;;4869144;29;20037;-71
2022/08/21 15:03:21;;;;;;;2.95;1.70;;;47.60;35.40;;;;;;4862614;29;20124;-71
2022/08/21 15:05:48;;;;;;;3.08;1.60;;;46.90;36.40;;;;;;4871415;29;20045;-71
2022/08/21 15:08:13;;;;;;;;;;;47.70;36.00;;;;;;4871277;29;20025;-71
2022/08/21 15:10:39;;;;;;;3.03;1.63;;;48.80;36.00;;;;;;4870963;29;19948;-72
2022/08/21 15:13:06;;;;;;;5.60;1.88;;;48.70;35.60;;;;;;4870669;29;20036;-72
2022/08/21 15:15:44;;;;;;;5.00;1.67;;;49.30;35.40;;;;;;4869832;29;20260;-72
2022/08/21 15:18:10;;;;;;;5.05;1.83;;;48.00;35.20;;;;;;4855874;29;20060;-72
2022/08/21 15:20:37;;;;;;;2.80;1.50;;;47.60;35.10;;;;;;4870354;29;20219;-71
2022/08/21 15:23:03;;;;;;;;;;;47.40;35.30;;;;;;4870974;29;20030;-74
2022/08/21 15:25:30;;;;;;;3.47;1.60;;;47.50;35.20;;;;;;4870911;29;19915;-71
2022/08/21 15:27:56;;;;;;;3.78;1.52;;;48.40;35.20;;;;;;4869381;29;20025;-72
2022/08/21 15:30:22;;;;;;;3.17;1.67;;;46.80;36.60;;;;;;4868927;29;20040;-72
2022/08/21 15:32:48;;;;;;;3.45;1.45;;;45.10;36.20;;;;;;4870624;29;20042;-72
2022/08/21 15:35:14;;;;;;;4.57;2.00;;;43.90;37.70;;;;;;4870190;29;20112;-71
2022/08/21 15:37:40;;;;;;;5.10;1.85;;;42.60;37.60;;;;;;4870245;29;20048;-72
2022/08/21 15:40:07;;;;;;;4.13;1.95;;;41.50;38.40;;;;;;4869895;29;20101;-72
2022/08/21 15:42:34;;;;;;;4.60;1.90;;;41.30;38.50;;;;;;4870614;29;20037;-72
2022/08/21 15:45:00;;;;;;;3.08;1.60;;;41.40;38.50;;;;;;4870449;29;20058;-71
2022/08/21 15:47:33;;;;;;;4.43;1.70;;;41.70;38.60;;;;;;4869596;29;20161;-71
2022/08/21 15:49:59;;;;;;;4.60;2.00;;;41.60;38.00;;;;;;4869400;29;20037;-72
2022/08/21 15:52:26;;;;;;;4.00;1.85;;;41.30;38.50;;;;;;4869563;29;20041;-71
2022/08/21 15:54:52;;;;;;;4.28;1.95;;;41.00;38.90;;;;;;4870073;29;20029;-71
2022/08/21 15:57:21;;;;;;;3.47;1.42;;;40.00;39.20;;;;;;4864436;29;20034;-71
2022/08/21 15:59:54;;;;;;;3.42;2.00;;;39.90;39.80;;;;;;4869580;29;20316;-71
2022/08/21 16:02:28;;;;;;;6.65;1.95;;;39.40;39.30;;;;;;4869188;29;20057;-71
2022/08/21 16:04:54;;;;;;;5.13;1.98;;;38.40;40.10;;;;;;4869975;29;20041;-71
2022/08/21 16:07:20;;;;;;;7.75;2.00;;;37.90;40.70;;;;;;4869545;29;20086;-71
2022/08/21 16:09:46;;;;;;;4.03;1.80;;;39.00;40.00;;;;;;4869735;29;20362;-72
2022/08/21 16:12:21;;;;;;;3.70;1.75;;;40.20;39.60;;;;;;4868983;29;20040;-72
2022/08/21 16:14:47;;;;;;;4.50;1.83;;;41.70;38.70;;;;;;4870167;29;20038;-72
2022/08/21 16:17:13;;;;;;;4.18;2.08;;;42.80;37.60;;;;;;4869412;29;20241;-72
2022/08/21 16:19:39;;;;;;;4.63;1.63;;;42.90;37.60;;;;;;4869778;29;20044;-72
2022/08/21 16:22:04;;;;;;;4.60;1.83;;;42.80;37.30;;;;;;4867825;29;20063;-72
2022/08/21 16:24:30;;;;;;;4.93;2.00;;;41.30;37.80;;;;;;4869475;29;20060;-72
2022/08/21 16:26:56;;;;;;;6.22;2.03;;;39.40;38.80;;;;;;4869924;29;20037;-71
2022/08/21 16:29:22;;;;;;;3.90;1.60;;;38.70;39.40;;;;;;4868837;29;20026;-70
2022/08/21 16:31:48;;;;;;;4.63;1.75;;;39.30;40.10;;;;;;4864468;29;20028;-70
2022/08/21 16:34:19;;;;;;;4.75;1.83;;;40.70;39.70;;;;;;4868859;29;20253;-71
2022/08/21 16:36:45;;;;;;;3.72;1.77;;;41.60;38.60;;;;;;4869686;29;20056;-71
2022/08/21 16:39:10;;;;;;;4.47;1.58;;;41.80;38.30;;;;;;4869490;29;20223;-71
2022/08/21 16:41:37;;;;;;;3.08;1.83;;;42.30;37.40;;;;;;4866308;29;20028;-73
2022/08/21 16:44:04;;;;;;;3.22;1.70;;;43.50;37.60;;;;;;4850329;29;20100;-71
2022/08/21 16:46:33;;;;;;;3.13;1.55;;;44.10;37.10;;;;;;4850576;29;20046;-72
2022/08/21 16:48:59;;;;;;;3.65;1.60;;;44.30;36.20;;;;;;4850780;29;20037;-72
2022/08/21 16:51:24;;;;;;;3.28;1.60;;;44.70;36.30;;;;;;4850711;29;20029;-71
2022/08/21 16:53:50;;;;;;;3.80;1.60;;;44.10;36.40;;;;;;4851128;29;20049;-71
2022/08/21 16:56:17;;;;;;;3.20;1.40;;;42.90;37.40;;;;;;4850340;29;20238;-71
2022/08/21 16:58:46;;;;;;;3.57;1.80;;;43.50;37.20;;;;;;4851125;29;20025;-74
2022/08/21 17:01:16;;;;;;;3.88;1.58;;;43.30;37.00;;;;;;4850837;29;20034;-72
2022/08/21 17:03:44;;;;;;;4.85;1.63;;;43.00;37.00;;;;;;4866097;29;20098;-72
2022/08/21 17:06:12;;;;;;;5.50;1.63;;;41.50;37.90;;;;;;4868908;29;20041;-72
2022/08/21 17:08:37;;;;;;;4.65;1.63;;;39.90;37.90;;;;;;4869451;29;20041;-72
2022/08/21 17:11:13;;;;;;;5.10;1.70;;;38.60;39.60;;;;;;4863666;29;20036;-71
2022/08/21 17:13:39;;;;;;;5.60;1.70;;;37.20;40.50;;;;;;4869541;29;20041;-71
2022/08/21 17:16:05;;;;;;;5.15;2.17;;;35.90;41.50;;;;;;4869129;29;20090;-71
2022/08/21 17:18:31;;;;;;;4.43;1.83;;;34.80;43.70;;;;;;4868954;29;20030;-72
2022/08/21 17:20:57;;;;;;;6.35;2.15;;;34.10;43.90;;;;;;4869312;29;20092;-71
2022/08/21 17:23:23;;;;;;;4.80;2.08;;;33.40;43.60;;;;;;4870084;29;20029;-72
2022/08/21 17:25:51;;;;;;;4.65;2.33;;;32.90;44.20;;;;;;4873147;29;20285;-71
2022/08/21 17:28:24;;;;;;;5.60;1.90;;;32.50;44.70;;;;;;4872018;29;20034;-71
2022/08/21 17:30:52;;;;;;;4.82;2.10;;;32.00;45.20;;;;;;4873042;29;20037;-71
2022/08/21 17:33:19;;;;;;;4.38;1.70;;;31.40;46.50;;;;;;4872553;29;20032;-72
2022/08/21 17:35:45;;;;;;;4.43;2.15;;;30.90;46.20;;;;;;4872729;29;20064;-72
2022/08/21 17:38:11;;;;;;;5.10;2.00;;;30.70;46.30;;;;;;4872881;29;20044;-72
2022/08/21 17:40:38;;;;;;;3.70;1.80;;;30.50;47.80;;;;;;4873178;29;20022;-72
2022/08/21 17:43:06;;;;;;;3.35;2.30;;;30.40;48.40;;;;;;4872437;29;20086;-72
2022/08/21 17:45:32;;;;;;;5.50;3.00;;;30.20;47.40;;;;;;4856944;29;20085;-71
2022/08/21 17:47:58;;;;;;;4.47;2.17;;;29.90;48.20;;;;;;4854235;29;20046;-71
2022/08/21 17:50:24;;;;;;;5.15;2.30;;;29.60;48.40;;;;;;4863577;29;20033;-71
2022/08/21 17:52:52;;;;;;;4.55;2.00;;;29.20;48.90;;;;;;4872523;29;20040;-71
2022/08/21 17:55:26;;;;;;;5.38;2.00;;;29.00;49.90;;;;;;4872361;29;20045;-72
2022/08/21 17:58:14;;;;;;;5.28;2.22;;;28.80;51.10;;;;;;4872450;29;20047;-71
2022/08/21 18:00:40;;;;;;;5.38;2.00;;;28.50;50.50;;;;;;4872334;29;20379;-72
2022/08/21 18:03:26;;;;;;;4.53;2.22;;;28.30;50.90;;;;;;4870998;29;20087;-77
2022/08/21 18:05:55;;;;;;;4.93;2.50;;;28.20;51.30;;;;;;4868913;29;20215;-72
2022/08/21 18:08:24;;;;;;;5.32;2.70;;;28.00;51.20;;;;;;4871660;29;20109;-72
2022/08/21 18:10:50;;;;;;;6.35;2.78;;;27.80;51.40;;;;;;4872193;29;20090;-74
2022/08/21 18:13:34;;;;;;;7.13;3.42;;;27.70;52.00;;;;;;4855673;29;20395;-74
2022/08/21 18:16:00;;;;;;;8.57;4.22;;;27.60;51.60;;;;;;4871305;29;20319;-74
2022/08/21 18:18:35;;;;;;;8.00;3.97;;;27.40;52.10;;;;;;4869990;29;20274;-73
2022/08/21 18:21:06;;;;;;;7.75;3.75;;;27.30;52.50;;;;;;4858714;29;20042;-73
2022/08/21 18:23:32;;;;;;;9.77;4.18;;;27.20;53.20;;;;;;4871056;29;20048;-72
2022/08/21 18:26:09;;;;;;;8.00;4.40;;;27.10;53.40;;;;;;4863841;29;20042;-75
2022/08/21 18:32:41;;;;;;;6.72;3.88;;;26.90;53.80;;;;;;4855747;29;20223;-76